sensor_id;sensor_type;location;lat;lon;timestamp;pressure;altitude;pressure_sealevel;temperature;humidity
55301;BME280;58302;51.446;-2.000;2023-06-05T00:01:43;101613.47;;;9.76;100.00
55301;BME280;58302;51.446;-2.000;2023-06-05T00:04:09;101616.44;;;9.75;100.00
55301;BME280;58302;51.446;-2.000;2023-06-05T00:06:35;101613.13;;;9.73;100.00
55301;BME280;58302;51.446;-2.000;2023-06-05T00:09:06;101619.81;;;9.70;100.00
55301;BME280;58302;51.446;-2.000;2023-06-05T00:11:32;101618.88;;;9.65;100.00
55301;BME280;58302;51.446;-2.000;2023-06-05T00:13:58;101621.19;;;9.61;100.00
55301;BME280;58302;51.446;-2.000;2023-06-05T00:16:24;101625.91;;;9.54;100.00
55301;BME280;58302;51.446;-2.000;2023-06-05T00:18:50;101618.78;;;9.41;100.00
55301;BME280;58302;51.446;-2.000;2023-06-05T00:21:16;101624.44;;;9.40;100.00
55301;BME280;58302;51.446;-2.000;2023-06-05T00:23:42;101619.88;;;9.34;100.00
55301;BME280;58302;51.446;-2.000;2023-06-05T00:26:09;101622.53;;;9.22;100.00
55301;BME280;58302;51.446;-2.000;2023-06-05T00:28:35;101629.72;;;9.16;100.00
55301;BME280;58302;51.446;-2.000;2023-06-05T00:31:01;101633.09;;;9.12;100.00
55301;BME280;58302;51.446;-2.000;2023-06-05T00:33:27;101630.84;;;9.09;100.00
55301;BME280;58302;51.446;-2.000;2023-06-05T00:35:55;101637.78;;;9.05;100.00
55301;BME280;58302;51.446;-2.000;2023-06-05T00:38:21;101647.19;;;9.02;100.00
55301;BME280;58302;51.446;-2.000;2023-06-05T00:40:47;101645.25;;;8.91;100.00
55301;BME280;58302;51.446;-2.000;2023-06-05T00:43:13;101640.50;;;8.86;100.00
55301;BME280;58302;51.446;-2.000;2023-06-05T00:45:39;101651.41;;;8.80;100.00
55301;BME280;58302;51.446;-2.000;2023-06-05T00:48:06;101655.16;;;8.79;100.00
55301;BME280;58302;51.446;-2.000;2023-06-05T00:50:32;101654.78;;;8.75;100.00
55301;BME280;58302;51.446;-2.000;2023-06-05T00:53:01;101649.44;;;8.68;100.00
55301;BME280;58302;51.446;-2.000;2023-06-05T00:55:27;101653.00;;;8.62;100.00
55301;BME280;58302;51.446;-2.000;2023-06-05T00:57:54;101650.28;;;8.62;100.00
55301;BME280;58302;51.446;-2.000;2023-06-05T01:00:21;101654.47;;;8.65;100.00
55301;BME280;58302;51.446;-2.000;2023-06-05T01:02:47;101654.94;;;8.55;100.00
55301;BME280;58302;51.446;-2.000;2023-06-05T01:05:13;101654.78;;;8.50;100.00
55301;BME280;58302;51.446;-2.000;2023-06-05T01:07:40;101656.66;;;8.50;100.00
55301;BME280;58302;51.446;-2.000;2023-06-05T01:10:07;101654.44;;;8.47;100.00
55301;BME280;58302;51.446;-2.000;2023-06-05T01:12:52;101651.31;;;8.43;100.00
55301;BME280;58302;51.446;-2.000;2023-06-05T01:15:22;101644.69;;;8.39;100.00
55301;BME280;58302;51.446;-2.000;2023-06-05T01:17:58;101650.78;;;8.28;100.00
55301;BME280;58302;51.446;-2.000;2023-06-05T01:20:34;101648.19;;;8.14;100.00
55301;BME280;58302;51.446;-2.000;2023-06-05T01:23:02;101642.59;;;8.09;100.00
55301;BME280;58302;51.446;-2.000;2023-06-05T01:25:28;101651.78;;;8.08;100.00
55301;BME280;58302;51.446;-2.000;2023-06-05T01:28:00;101650.31;;;8.06;100.00
55301;BME280;58302;51.446;-2.000;2023-06-05T01:30:42;101646.38;;;8.02;100.00
55301;BME280;58302;51.446;-2.000;2023-06-05T01:33:23;101647.00;;;8.04;100.00
55301;BME280;58302;51.446;-2.000;2023-06-05T01:35:52;101647.06;;;7.97;100.00
55301;BME280;58302;51.446;-2.000;2023-06-05T01:38:19;101642.84;;;8.01;100.00
55301;BME280;58302;51.446;-2.000;2023-06-05T01:40:47;101644.31;;;8.04;100.00
55301;BME280;58302;51.446;-2.000;2023-06-05T01:43:14;101652.84;;;8.01;100.00
55301;BME280;58302;51.446;-2.000;2023-06-05T01:45:41;101652.06;;;7.93;100.00
55301;BME280;58302;51.446;-2.000;2023-06-05T01:48:08;101643.72;;;7.95;100.00
55301;BME280;58302;51.446;-2.000;2023-06-05T01:50:37;101642.06;;;7.94;100.00
55301;BME280;58302;51.446;-2.000;2023-06-05T01:53:04;101639.38;;;7.94;100.00
55301;BME280;58302;51.446;-2.000;2023-06-05T01:55:30;101639.63;;;7.86;100.00
55301;BME280;58302;51.446;-2.000;2023-06-05T01:57:56;101640.94;;;7.77;100.00
55301;BME280;58302;51.446;-2.000;2023-06-05T02:00:22;101647.56;;;7.81;100.00
55301;BME280;58302;51.446;-2.000;2023-06-05T02:02:49;101638.81;;;7.79;100.00
55301;BME280;58302;51.446;-2.000;2023-06-05T02:05:17;101645.13;;;7.73;100.00
55301;BME280;58302;51.446;-2.000;2023-06-05T02:07:47;101632.63;;;7.72;100.00
55301;BME280;58302;51.446;-2.000;2023-06-05T02:10:15;101634.75;;;7.70;100.00
55301;BME280;58302;51.446;-2.000;2023-06-05T02:12:44;101635.19;;;7.60;100.00
55301;BME280;58302;51.446;-2.000;2023-06-05T02:15:11;101628.97;;;7.59;100.00
55301;BME280;58302;51.446;-2.000;2023-06-05T02:17:41;101626.50;;;7.51;100.00
55301;BME280;58302;51.446;-2.000;2023-06-05T02:20:15;101634.88;;;7.43;100.00
55301;BME280;58302;51.446;-2.000;2023-06-05T02:22:41;101629.00;;;7.46;100.00
55301;BME280;58302;51.446;-2.000;2023-06-05T02:25:08;101625.72;;;7.44;100.00
55301;BME280;58302;51.446;-2.000;2023-06-05T02:27:36;101633.22;;;7.42;100.00
55301;BME280;58302;51.446;-2.000;2023-06-05T02:30:03;101639.66;;;7.41;100.00
55301;BME280;58302;51.446;-2.000;2023-06-05T02:32:29;101634.91;;;7.36;100.00
55301;BME280;58302;51.446;-2.000;2023-06-05T02:34:57;101642.16;;;7.36;100.00
55301;BME280;58302;51.446;-2.000;2023-06-05T02:37:24;101642.84;;;7.31;100.00
55301;BME280;58302;51.446;-2.000;2023-06-05T02:39:50;101642.84;;;7.25;100.00
55301;BME280;58302;51.446;-2.000;2023-06-05T02:42:16;101643.69;;;7.19;100.00
55301;BME280;58302;51.446;-2.000;2023-06-05T02:44:46;101657.00;;;7.13;100.00
55301;BME280;58302;51.446;-2.000;2023-06-05T02:47:12;101648.31;;;7.11;100.00
55301;BME280;58302;51.446;-2.000;2023-06-05T02:49:38;101653.47;;;7.13;100.00
55301;BME280;58302;51.446;-2.000;2023-06-05T02:52:04;101654.13;;;7.08;100.00
55301;BME280;58302;51.446;-2.000;2023-06-05T02:54:31;101655.34;;;7.12;100.00
55301;BME280;58302;51.446;-2.000;2023-06-05T02:56:56;101654.75;;;7.10;100.00
55301;BME280;58302;51.446;-2.000;2023-06-05T02:59:26;101650.59;;;7.08;100.00
55301;BME280;58302;51.446;-2.000;2023-06-05T03:01:53;101654.56;;;7.05;100.00
55301;BME280;58302;51.446;-2.000;2023-06-05T03:04:20;101654.38;;;7.00;100.00
55301;BME280;58302;51.446;-2.000;2023-06-05T03:06:50;101659.16;;;6.98;100.00
55301;BME280;58302;51.446;-2.000;2023-06-05T03:09:18;101662.88;;;6.97;100.00
55301;BME280;58302;51.446;-2.000;2023-06-05T03:11:44;101652.91;;;6.91;100.00
55301;BME280;58302;51.446;-2.000;2023-06-05T03:14:10;101650.22;;;6.91;100.00
55301;BME280;58302;51.446;-2.000;2023-06-05T03:16:36;101650.84;;;6.86;100.00
55301;BME280;58302;51.446;-2.000;2023-06-05T03:19:09;101652.50;;;6.94;100.00
55301;BME280;58302;51.446;-2.000;2023-06-05T03:21:37;101643.59;;;6.87;100.00
55301;BME280;58302;51.446;-2.000;2023-06-05T03:24:06;101643.38;;;6.89;100.00
55301;BME280;58302;51.446;-2.000;2023-06-05T03:26:32;101648.16;;;6.86;100.00
55301;BME280;58302;51.446;-2.000;2023-06-05T03:28:59;101650.47;;;6.83;100.00
55301;BME280;58302;51.446;-2.000;2023-06-05T03:31:25;101643.81;;;6.79;100.00
55301;BME280;58302;51.446;-2.000;2023-06-05T03:33:51;101646.50;;;6.85;100.00
55301;BME280;58302;51.446;-2.000;2023-06-05T03:36:17;101650.44;;;6.90;100.00
55301;BME280;58302;51.446;-2.000;2023-06-05T03:38:43;101652.69;;;7.06;100.00
55301;BME280;58302;51.446;-2.000;2023-06-05T03:41:10;101649.72;;;7.14;100.00
55301;BME280;58302;51.446;-2.000;2023-06-05T03:43:35;101654.03;;;7.35;100.00
55301;BME280;58302;51.446;-2.000;2023-06-05T03:46:02;101645.66;;;7.50;100.00
55301;BME280;58302;51.446;-2.000;2023-06-05T03:48:28;101644.34;;;7.65;100.00
55301;BME280;58302;51.446;-2.000;2023-06-05T03:50:54;101648.22;;;7.76;100.00
55301;BME280;58302;51.446;-2.000;2023-06-05T03:53:22;101642.75;;;7.83;100.00
55301;BME280;58302;51.446;-2.000;2023-06-05T03:55:48;101629.41;;;7.88;100.00
55301;BME280;58302;51.446;-2.000;2023-06-05T03:58:18;101629.59;;;7.93;100.00
55301;BME280;58302;51.446;-2.000;2023-06-05T04:00:46;101627.47;;;7.95;100.00
55301;BME280;58302;51.446;-2.000;2023-06-05T04:03:14;101633.06;;;8.00;100.00
55301;BME280;58302;51.446;-2.000;2023-06-05T04:05:41;101630.19;;;7.95;100.00
55301;BME280;58302;51.446;-2.000;2023-06-05T04:08:08;101628.28;;;8.02;100.00
55301;BME280;58302;51.446;-2.000;2023-06-05T04:10:37;101608.28;;;8.03;100.00
55301;BME280;58302;51.446;-2.000;2023-06-05T04:13:04;101627.59;;;8.07;100.00
55301;BME280;58302;51.446;-2.000;2023-06-05T04:15:30;101625.72;;;8.07;100.00
55301;BME280;58302;51.446;-2.000;2023-06-05T04:17:56;101622.75;;;8.15;100.00
55301;BME280;58302;51.446;-2.000;2023-06-05T04:20:22;101620.28;;;8.14;100.00
55301;BME280;58302;51.446;-2.000;2023-06-05T04:22:49;101616.50;;;8.15;100.00
55301;BME280;58302;51.446;-2.000;2023-06-05T04:25:15;101616.69;;;8.20;100.00
55301;BME280;58302;51.446;-2.000;2023-06-05T04:27:43;101609.31;;;8.27;100.00
55301;BME280;58302;51.446;-2.000;2023-06-05T04:30:11;101612.88;;;8.28;100.00
55301;BME280;58302;51.446;-2.000;2023-06-05T04:32:38;101610.78;;;8.30;100.00
55301;BME280;58302;51.446;-2.000;2023-06-05T04:35:06;101607.22;;;8.36;100.00
55301;BME280;58302;51.446;-2.000;2023-06-05T04:37:32;101602.38;;;8.38;100.00
55301;BME280;58302;51.446;-2.000;2023-06-05T04:39:58;101596.72;;;8.46;100.00
55301;BME280;58302;51.446;-2.000;2023-06-05T04:42:25;101595.19;;;8.50;100.00
55301;BME280;58302;51.446;-2.000;2023-06-05T04:44:58;101597.81;;;8.57;100.00
55301;BME280;58302;51.446;-2.000;2023-06-05T04:47:27;101599.28;;;8.59;100.00
55301;BME280;58302;51.446;-2.000;2023-06-05T04:49:53;101588.13;;;8.67;100.00
55301;BME280;58302;51.446;-2.000;2023-06-05T04:52:21;101588.09;;;8.74;100.00
55301;BME280;58302;51.446;-2.000;2023-06-05T04:54:47;101586.94;;;8.82;100.00
55301;BME280;58302;51.446;-2.000;2023-06-05T04:57:13;101597.47;;;8.90;100.00
55301;BME280;58302;51.446;-2.000;2023-06-05T04:59:39;101594.91;;;8.95;100.00
55301;BME280;58302;51.446;-2.000;2023-06-05T05:02:05;101593.41;;;8.99;100.00
55301;BME280;58302;51.446;-2.000;2023-06-05T05:04:32;101584.16;;;9.07;100.00
55301;BME280;58302;51.446;-2.000;2023-06-05T05:06:57;101584.28;;;9.12;100.00
55301;BME280;58302;51.446;-2.000;2023-06-05T05:09:27;101575.63;;;9.21;100.00
55301;BME280;58302;51.446;-2.000;2023-06-05T05:11:54;101571.53;;;9.31;100.00
55301;BME280;58302;51.446;-2.000;2023-06-05T05:14:19;101564.47;;;9.30;100.00
55301;BME280;58302;51.446;-2.000;2023-06-05T05:16:46;101567.66;;;9.38;100.00
55301;BME280;58302;51.446;-2.000;2023-06-05T05:19:12;101564.66;;;9.46;100.00
55301;BME280;58302;51.446;-2.000;2023-06-05T05:21:37;101565.47;;;9.47;100.00
55301;BME280;58302;51.446;-2.000;2023-06-05T05:24:04;101568.03;;;9.42;100.00
55301;BME280;58302;51.446;-2.000;2023-06-05T05:26:30;101560.03;;;9.47;100.00
55301;BME280;58302;51.446;-2.000;2023-06-05T05:28:56;101563.97;;;9.51;100.00
55301;BME280;58302;51.446;-2.000;2023-06-05T05:31:22;101557.34;;;9.47;100.00
55301;BME280;58302;51.446;-2.000;2023-06-05T05:33:48;101555.97;;;9.56;100.00
55301;BME280;58302;51.446;-2.000;2023-06-05T05:36:14;101556.06;;;9.61;100.00
55301;BME280;58302;51.446;-2.000;2023-06-05T05:38:40;101555.03;;;9.62;100.00
55301;BME280;58302;51.446;-2.000;2023-06-05T05:41:06;101552.53;;;9.61;100.00
55301;BME280;58302;51.446;-2.000;2023-06-05T05:43:32;101550.06;;;9.71;100.00
55301;BME280;58302;51.446;-2.000;2023-06-05T05:45:58;101559.16;;;9.76;100.00
55301;BME280;58302;51.446;-2.000;2023-06-05T05:48:24;101554.50;;;9.84;100.00
55301;BME280;58302;51.446;-2.000;2023-06-05T05:50:50;101548.72;;;9.92;100.00
55301;BME280;58302;51.446;-2.000;2023-06-05T05:53:16;101549.91;;;10.08;100.00
55301;BME280;58302;51.446;-2.000;2023-06-05T05:55:42;101545.88;;;10.10;100.00
55301;BME280;58302;51.446;-2.000;2023-06-05T05:58:08;101541.19;;;10.17;100.00
55301;BME280;58302;51.446;-2.000;2023-06-05T06:00:34;101548.16;;;10.13;100.00
55301;BME280;58302;51.446;-2.000;2023-06-05T06:03:01;101552.19;;;10.22;100.00
55301;BME280;58302;51.446;-2.000;2023-06-05T06:05:27;101550.44;;;10.40;100.00
55301;BME280;58302;51.446;-2.000;2023-06-05T06:07:55;101550.75;;;10.43;100.00
55301;BME280;58302;51.446;-2.000;2023-06-05T06:10:21;101546.38;;;10.54;100.00
55301;BME280;58302;51.446;-2.000;2023-06-05T06:12:48;101538.81;;;10.68;100.00
55301;BME280;58302;51.446;-2.000;2023-06-05T06:15:14;101544.00;;;10.69;100.00
55301;BME280;58302;51.446;-2.000;2023-06-05T06:17:40;101549.09;;;10.77;100.00
55301;BME280;58302;51.446;-2.000;2023-06-05T06:20:06;101549.16;;;10.94;100.00
55301;BME280;58302;51.446;-2.000;2023-06-05T06:22:34;101541.22;;;11.04;100.00
55301;BME280;58302;51.446;-2.000;2023-06-05T06:25:00;101546.66;;;11.04;100.00
55301;BME280;58302;51.446;-2.000;2023-06-05T06:27:27;101550.00;;;10.95;100.00
55301;BME280;58302;51.446;-2.000;2023-06-05T06:29:53;101549.38;;;11.04;100.00
55301;BME280;58302;51.446;-2.000;2023-06-05T06:32:20;101545.22;;;11.02;100.00
55301;BME280;58302;51.446;-2.000;2023-06-05T06:34:47;101553.63;;;11.00;100.00
55301;BME280;58302;51.446;-2.000;2023-06-05T06:37:13;101550.19;;;11.05;100.00
55301;BME280;58302;51.446;-2.000;2023-06-05T06:39:43;101551.44;;;11.14;100.00
55301;BME280;58302;51.446;-2.000;2023-06-05T06:42:10;101550.25;;;11.22;100.00
55301;BME280;58302;51.446;-2.000;2023-06-05T06:44:39;101549.28;;;11.28;100.00
55301;BME280;58302;51.446;-2.000;2023-06-05T06:47:05;101548.66;;;11.38;100.00
55301;BME280;58302;51.446;-2.000;2023-06-05T06:49:33;101543.47;;;11.53;100.00
55301;BME280;58302;51.446;-2.000;2023-06-05T06:51:59;101546.28;;;11.58;100.00
55301;BME280;58302;51.446;-2.000;2023-06-05T06:54:25;101542.59;;;11.64;100.00
55301;BME280;58302;51.446;-2.000;2023-06-05T06:56:57;101545.19;;;11.71;100.00
55301;BME280;58302;51.446;-2.000;2023-06-05T06:59:23;101546.56;;;11.73;100.00
55301;BME280;58302;51.446;-2.000;2023-06-05T07:02:09;101545.00;;;11.60;100.00
55301;BME280;58302;51.446;-2.000;2023-06-05T07:04:36;101555.44;;;11.52;100.00
55301;BME280;58302;51.446;-2.000;2023-06-05T07:07:02;101553.88;;;11.56;100.00
55301;BME280;58302;51.446;-2.000;2023-06-05T07:09:29;101556.63;;;11.73;100.00
55301;BME280;58302;51.446;-2.000;2023-06-05T07:11:55;101552.22;;;11.83;100.00
55301;BME280;58302;51.446;-2.000;2023-06-05T07:14:22;101555.78;;;12.01;100.00
55301;BME280;58302;51.446;-2.000;2023-06-05T07:16:47;101554.28;;;12.10;100.00
55301;BME280;58302;51.446;-2.000;2023-06-05T07:19:15;101562.31;;;12.17;100.00
55301;BME280;58302;51.446;-2.000;2023-06-05T07:21:41;101550.75;;;12.26;100.00
55301;BME280;58302;51.446;-2.000;2023-06-05T07:24:07;101564.56;;;12.42;100.00
55301;BME280;58302;51.446;-2.000;2023-06-05T07:26:33;101561.91;;;12.47;100.00
55301;BME280;58302;51.446;-2.000;2023-06-05T07:28:59;101563.41;;;12.54;100.00
55301;BME280;58302;51.446;-2.000;2023-06-05T07:31:25;101559.94;;;12.59;100.00
55301;BME280;58302;51.446;-2.000;2023-06-05T07:33:51;101565.22;;;12.65;100.00
55301;BME280;58302;51.446;-2.000;2023-06-05T07:36:18;101561.78;;;12.53;100.00
55301;BME280;58302;51.446;-2.000;2023-06-05T07:38:44;101569.84;;;12.65;100.00
55301;BME280;58302;51.446;-2.000;2023-06-05T07:41:10;101567.63;;;12.84;100.00
55301;BME280;58302;51.446;-2.000;2023-06-05T07:43:39;101570.97;;;13.13;100.00
55301;BME280;58302;51.446;-2.000;2023-06-05T07:46:07;101563.00;;;13.28;100.00
55301;BME280;58302;51.446;-2.000;2023-06-05T07:48:35;101560.25;;;13.50;100.00
55301;BME280;58302;51.446;-2.000;2023-06-05T07:51:01;101560.34;;;13.60;100.00
55301;BME280;58302;51.446;-2.000;2023-06-05T07:53:27;101565.00;;;13.60;100.00
55301;BME280;58302;51.446;-2.000;2023-06-05T07:55:53;101567.59;;;13.77;100.00
55301;BME280;58302;51.446;-2.000;2023-06-05T07:58:19;101561.94;;;13.83;100.00
55301;BME280;58302;51.446;-2.000;2023-06-05T08:00:45;101555.78;;;13.98;100.00
55301;BME280;58302;51.446;-2.000;2023-06-05T08:03:14;101549.41;;;13.87;100.00
55301;BME280;58302;51.446;-2.000;2023-06-05T08:05:47;101553.19;;;13.81;100.00
55301;BME280;58302;51.446;-2.000;2023-06-05T08:08:14;101559.94;;;14.06;100.00
55301;BME280;58302;51.446;-2.000;2023-06-05T08:10:40;101554.03;;;14.19;100.00
55301;BME280;58302;51.446;-2.000;2023-06-05T08:13:10;101553.16;;;14.13;100.00
55301;BME280;58302;51.446;-2.000;2023-06-05T08:15:36;101558.22;;;14.32;100.00
55301;BME280;58302;51.446;-2.000;2023-06-05T08:18:02;101550.19;;;14.52;100.00
55301;BME280;58302;51.446;-2.000;2023-06-05T08:20:28;101560.94;;;14.69;100.00
55301;BME280;58302;51.446;-2.000;2023-06-05T08:22:55;101555.28;;;14.86;100.00
55301;BME280;58302;51.446;-2.000;2023-06-05T08:25:26;101549.28;;;14.94;100.00
55301;BME280;58302;51.446;-2.000;2023-06-05T08:27:52;101561.06;;;14.99;100.00
55301;BME280;58302;51.446;-2.000;2023-06-05T08:30:19;101562.78;;;15.16;100.00
55301;BME280;58302;51.446;-2.000;2023-06-05T08:32:45;101551.34;;;15.29;100.00
55301;BME280;58302;51.446;-2.000;2023-06-05T08:35:12;101550.00;;;15.52;100.00
55301;BME280;58302;51.446;-2.000;2023-06-05T08:37:39;101539.34;;;15.55;100.00
55301;BME280;58302;51.446;-2.000;2023-06-05T08:40:06;101554.63;;;15.36;100.00
55301;BME280;58302;51.446;-2.000;2023-06-05T08:42:34;101546.97;;;15.48;100.00
55301;BME280;58302;51.446;-2.000;2023-06-05T08:45:00;101540.97;;;15.51;100.00
55301;BME280;58302;51.446;-2.000;2023-06-05T08:47:28;101550.56;;;15.54;100.00
55301;BME280;58302;51.446;-2.000;2023-06-05T08:49:56;101559.53;;;15.24;100.00
55301;BME280;58302;51.446;-2.000;2023-06-05T08:52:23;101561.47;;;14.66;100.00
55301;BME280;58302;51.446;-2.000;2023-06-05T08:54:49;101564.22;;;14.71;100.00
55301;BME280;58302;51.446;-2.000;2023-06-05T08:57:15;101562.09;;;14.83;100.00
55301;BME280;58302;51.446;-2.000;2023-06-05T08:59:43;101557.00;;;15.07;100.00
55301;BME280;58302;51.446;-2.000;2023-06-05T09:02:09;101552.44;;;15.33;100.00
55301;BME280;58302;51.446;-2.000;2023-06-05T09:04:38;101545.31;;;15.37;100.00
55301;BME280;58302;51.446;-2.000;2023-06-05T09:07:04;101531.41;;;15.64;100.00
55301;BME280;58302;51.446;-2.000;2023-06-05T09:09:31;101535.00;;;15.75;100.00
55301;BME280;58302;51.446;-2.000;2023-06-05T09:14:29;101530.56;;;16.40;100.00
55301;BME280;58302;51.446;-2.000;2023-06-05T09:16:57;101528.31;;;16.52;100.00
55301;BME280;58302;51.446;-2.000;2023-06-05T09:19:23;101521.16;;;16.62;100.00
55301;BME280;58302;51.446;-2.000;2023-06-05T09:21:54;101518.75;;;16.40;100.00
55301;BME280;58302;51.446;-2.000;2023-06-05T09:24:22;101522.91;;;15.61;100.00
55301;BME280;58302;51.446;-2.000;2023-06-05T09:29:21;101521.25;;;15.60;100.00
55301;BME280;58302;51.446;-2.000;2023-06-05T09:31:48;101526.69;;;15.34;100.00
55301;BME280;58302;51.446;-2.000;2023-06-05T09:34:24;101525.41;;;15.72;100.00
55301;BME280;58302;51.446;-2.000;2023-06-05T09:36:50;101524.81;;;15.55;100.00
55301;BME280;58302;51.446;-2.000;2023-06-05T09:39:17;101520.13;;;15.45;100.00
55301;BME280;58302;51.446;-2.000;2023-06-05T09:41:46;101523.16;;;15.59;100.00
55301;BME280;58302;51.446;-2.000;2023-06-05T09:44:15;101520.75;;;15.93;100.00
55301;BME280;58302;51.446;-2.000;2023-06-05T09:47:04;101524.03;;;16.11;100.00
55301;BME280;58302;51.446;-2.000;2023-06-05T09:52:11;101527.56;;;15.50;100.00
55301;BME280;58302;51.446;-2.000;2023-06-05T09:54:39;101532.44;;;15.22;100.00
55301;BME280;58302;51.446;-2.000;2023-06-05T09:57:07;101527.59;;;15.70;100.00
55301;BME280;58302;51.446;-2.000;2023-06-05T09:59:53;101525.41;;;15.72;100.00
55301;BME280;58302;51.446;-2.000;2023-06-05T10:02:24;101526.78;;;16.00;100.00
55301;BME280;58302;51.446;-2.000;2023-06-05T10:05:04;101522.09;;;16.06;100.00
55301;BME280;58302;51.446;-2.000;2023-06-05T10:07:30;101515.81;;;15.90;100.00
55301;BME280;58302;51.446;-2.000;2023-06-05T10:09:57;101524.03;;;16.00;100.00
55301;BME280;58302;51.446;-2.000;2023-06-05T10:12:24;101529.19;;;16.43;100.00
55301;BME280;58302;51.446;-2.000;2023-06-05T10:14:53;101523.31;;;16.80;100.00
55301;BME280;58302;51.446;-2.000;2023-06-05T10:17:21;101528.25;;;16.83;100.00
55301;BME280;58302;51.446;-2.000;2023-06-05T10:19:47;101532.53;;;17.15;100.00
55301;BME280;58302;51.446;-2.000;2023-06-05T10:22:13;101528.47;;;16.97;100.00
55301;BME280;58302;51.446;-2.000;2023-06-05T10:24:55;101527.47;;;17.32;100.00
55301;BME280;58302;51.446;-2.000;2023-06-05T10:39:08;101557.47;;;18.89;100.00
55301;BME280;58302;51.446;-2.000;2023-06-05T10:41:35;101552.09;;;19.21;100.00
55301;BME280;58302;51.446;-2.000;2023-06-05T10:44:01;101558.66;;;19.44;100.00
55301;BME280;58302;51.446;-2.000;2023-06-05T10:51:43;101542.16;;;17.56;100.00
55301;BME280;58302;51.446;-2.000;2023-06-05T10:54:14;101553.47;;;17.89;100.00
55301;BME280;58302;51.446;-2.000;2023-06-05T10:59:24;101555.09;;;18.53;100.00
55301;BME280;58302;51.446;-2.000;2023-06-05T11:07:24;101541.19;;;18.10;100.00
55301;BME280;58302;51.446;-2.000;2023-06-05T11:15:02;101547.03;;;19.47;100.00
55301;BME280;58302;51.446;-2.000;2023-06-05T11:17:35;101540.72;;;19.47;100.00
55301;BME280;58302;51.446;-2.000;2023-06-05T11:28:00;101521.19;;;21.82;100.00
55301;BME280;58302;51.446;-2.000;2023-06-05T11:30:30;101525.84;;;22.58;100.00
55301;BME280;58302;51.446;-2.000;2023-06-05T11:33:10;101525.88;;;23.06;100.00
55301;BME280;58302;51.446;-2.000;2023-06-05T11:35:39;101519.69;;;23.18;100.00
55301;BME280;58302;51.446;-2.000;2023-06-05T11:38:15;101528.66;;;22.27;100.00
55301;BME280;58302;51.446;-2.000;2023-06-05T11:40:43;101530.00;;;21.12;100.00
55301;BME280;58302;51.446;-2.000;2023-06-05T11:43:11;101531.22;;;19.53;100.00
55301;BME280;58302;51.446;-2.000;2023-06-05T11:45:38;101521.78;;;19.59;100.00
55301;BME280;58302;51.446;-2.000;2023-06-05T11:48:10;101524.47;;;19.64;100.00
55301;BME280;58302;51.446;-2.000;2023-06-05T11:50:37;101532.66;;;19.32;100.00
55301;BME280;58302;51.446;-2.000;2023-06-05T11:53:08;101531.66;;;19.22;100.00
55301;BME280;58302;51.446;-2.000;2023-06-05T11:55:34;101517.66;;;20.08;100.00
55301;BME280;58302;51.446;-2.000;2023-06-05T11:58:27;101520.31;;;20.60;100.00
55301;BME280;58302;51.446;-2.000;2023-06-05T12:01:14;101516.88;;;21.31;100.00
55301;BME280;58302;51.446;-2.000;2023-06-05T12:03:44;101522.56;;;21.49;100.00
55301;BME280;58302;51.446;-2.000;2023-06-05T12:06:11;101512.00;;;21.01;100.00
55301;BME280;58302;51.446;-2.000;2023-06-05T12:08:39;101509.84;;;20.29;100.00
55301;BME280;58302;51.446;-2.000;2023-06-05T12:11:23;101511.44;;;20.63;100.00
55301;BME280;58302;51.446;-2.000;2023-06-05T12:13:56;101513.44;;;19.97;100.00
55301;BME280;58302;51.446;-2.000;2023-06-05T12:16:39;101505.81;;;20.08;100.00
55301;BME280;58302;51.446;-2.000;2023-06-05T12:19:16;101511.66;;;19.36;100.00
55301;BME280;58302;51.446;-2.000;2023-06-05T12:21:45;101523.34;;;19.46;100.00
55301;BME280;58302;51.446;-2.000;2023-06-05T12:24:12;101518.50;;;19.57;100.00
55301;BME280;58302;51.446;-2.000;2023-06-05T12:26:49;101511.47;;;20.16;100.00
55301;BME280;58302;51.446;-2.000;2023-06-05T12:29:20;101507.56;;;21.27;100.00
55301;BME280;58302;51.446;-2.000;2023-06-05T12:31:52;101506.19;;;22.06;100.00
55301;BME280;58302;51.446;-2.000;2023-06-05T12:34:18;101496.38;;;22.62;100.00
55301;BME280;58302;51.446;-2.000;2023-06-05T12:36:44;101486.72;;;23.51;100.00
55301;BME280;58302;51.446;-2.000;2023-06-05T12:39:11;101489.22;;;23.35;100.00
55301;BME280;58302;51.446;-2.000;2023-06-05T12:41:42;101498.94;;;20.79;100.00
55301;BME280;58302;51.446;-2.000;2023-06-05T12:44:08;101492.44;;;20.15;100.00
55301;BME280;58302;51.446;-2.000;2023-06-05T12:46:35;101488.50;;;20.76;100.00
55301;BME280;58302;51.446;-2.000;2023-06-05T12:49:03;101487.34;;;21.41;100.00
55301;BME280;58302;51.446;-2.000;2023-06-05T12:51:29;101477.88;;;21.78;100.00
55301;BME280;58302;51.446;-2.000;2023-06-05T12:53:56;101484.00;;;21.97;100.00
55301;BME280;58302;51.446;-2.000;2023-06-05T12:56:23;101487.94;;;22.76;100.00
55301;BME280;58302;51.446;-2.000;2023-06-05T12:58:57;101472.56;;;23.35;100.00
55301;BME280;58302;51.446;-2.000;2023-06-05T13:01:24;101473.69;;;23.08;100.00
55301;BME280;58302;51.446;-2.000;2023-06-05T13:03:52;101465.59;;;21.93;100.00
55301;BME280;58302;51.446;-2.000;2023-06-05T13:06:18;101464.31;;;21.99;100.00
55301;BME280;58302;51.446;-2.000;2023-06-05T13:08:45;101461.00;;;22.19;100.00
55301;BME280;58302;51.446;-2.000;2023-06-05T13:11:13;101455.13;;;22.12;100.00
55301;BME280;58302;51.446;-2.000;2023-06-05T13:13:39;101450.41;;;22.61;100.00
55301;BME280;58302;51.446;-2.000;2023-06-05T13:16:05;101453.94;;;22.44;100.00
55301;BME280;58302;51.446;-2.000;2023-06-05T13:18:32;101447.53;;;22.83;100.00
55301;BME280;58302;51.446;-2.000;2023-06-05T13:20:59;101449.50;;;23.61;100.00
55301;BME280;58302;51.446;-2.000;2023-06-05T13:23:25;101438.38;;;23.87;100.00
55301;BME280;58302;51.446;-2.000;2023-06-05T13:25:52;101436.44;;;23.79;100.00